createdAt,value
2018-02-10T00:00:59.396Z,0.10
2018-02-10T00:03:29.406Z,0.10
2018-02-10T00:05:59.421Z,0.10
2018-02-10T00:08:29.384Z,0.10
2018-02-10T00:10:59.355Z,0.10
2018-02-10T00:13:29.198Z,0.20
2018-02-10T00:15:59.191Z,0.10
2018-02-10T00:18:29.055Z,0.20
2018-02-10T00:20:59.695Z,0.20
2018-02-10T00:23:30.399Z,0.20
2018-02-10T00:26:00.231Z,0.20
2018-02-10T00:28:30.338Z,0.20
2018-02-10T00:31:00.318Z,0.20
2018-02-10T00:33:30.186Z,0.10
2018-02-10T00:36:00.087Z,0.10
2018-02-10T00:38:30.062Z,0.00
2018-02-10T00:40:59.919Z,0.00
2018-02-10T00:43:29.792Z,0.00
2018-02-10T00:45:59.359Z,0.00
2018-02-10T00:48:30.131Z,0.00
2018-02-10T00:50:59.973Z,0.00
2018-02-10T00:53:29.961Z,0.10
2018-02-10T00:55:59.774Z,0.10
2018-02-10T00:58:29.731Z,0.10
2018-02-10T01:00:59.706Z,0.10
2018-02-10T01:03:29.553Z,0.20
2018-02-10T01:05:59.543Z,0.20
2018-02-10T01:08:29.583Z,0.20
2018-02-10T01:11:00.163Z,0.20
2018-02-10T01:13:30.721Z,0.20
2018-02-10T01:16:00.580Z,0.30
2018-02-10T01:18:30.464Z,0.30
2018-02-10T01:21:00.472Z,0.20
2018-02-10T01:23:30.311Z,0.20
2018-02-10T01:26:00.355Z,0.20
2018-02-10T01:28:30.451Z,0.20
2018-02-10T01:31:01.079Z,0.20
2018-02-10T01:33:31.631Z,0.20
2018-02-10T01:36:01.591Z,0.20
2018-02-10T01:38:31.608Z,0.20
2018-02-10T01:41:01.516Z,0.20
2018-02-10T01:43:31.541Z,0.20
2018-02-10T01:46:01.503Z,0.10
2018-02-10T01:48:31.474Z,0.20
2018-02-10T01:51:01.492Z,0.10
2018-02-10T01:53:31.509Z,0.20
2018-02-10T01:56:01.423Z,0.20
2018-02-10T01:58:31.371Z,0.20
2018-02-10T02:01:01.250Z,0.20
2018-02-10T02:03:31.068Z,0.20
2018-02-10T02:06:01.017Z,0.20
2018-02-10T02:08:30.839Z,0.10
2018-02-10T02:11:00.813Z,0.10
2018-02-10T02:13:31.546Z,0.10
2018-02-10T02:16:01.395Z,0.10
2018-02-10T02:18:31.295Z,0.00
2018-02-10T02:21:01.296Z,0.00
2018-02-10T02:23:31.224Z,0.00
2018-02-10T02:26:01.123Z,0.00
2018-02-10T02:28:31.022Z,0.00
2018-02-10T02:31:00.956Z,0.00
2018-02-10T02:33:30.971Z,0.00
2018-02-10T02:36:00.988Z,0.00
2018-02-10T02:38:31.006Z,0.00
2018-02-10T02:41:00.999Z,0.00
2018-02-10T02:43:31.144Z,0.00
2018-02-10T02:46:00.979Z,0.00
2018-02-10T02:48:31.016Z,0.00
2018-02-10T02:51:00.936Z,-0.10
2018-02-10T02:53:30.804Z,-0.10
2018-02-10T02:56:00.677Z,-0.10
2018-02-10T02:58:31.453Z,-0.10
2018-02-10T03:01:01.471Z,-0.10
2018-02-10T03:03:31.331Z,0.00
2018-02-10T03:06:02.412Z,0.00
2018-02-10T03:08:32.236Z,0.00
2018-02-10T03:11:02.828Z,0.00
2018-02-10T03:13:33.607Z,0.00
2018-02-10T03:16:03.504Z,-0.10
2018-02-10T03:18:33.540Z,-0.10
2018-02-10T03:21:03.462Z,-0.10
2018-02-10T03:23:33.319Z,-0.10
2018-02-10T03:26:03.213Z,-0.10
2018-02-10T03:28:33.302Z,-0.10
2018-02-10T03:31:03.257Z,-0.10
2018-02-10T03:33:33.085Z,-0.20
2018-02-10T03:36:03.150Z,-0.20
2018-02-10T03:38:33.169Z,-0.20
2018-02-10T03:41:03.025Z,-0.20
2018-02-10T03:43:34.076Z,-0.20
2018-02-10T03:46:04.142Z,-0.20
2018-02-10T03:48:34.039Z,-0.20
2018-02-10T03:51:03.972Z,-0.30
2018-02-10T03:53:33.844Z,-0.20
2018-02-10T03:56:03.697Z,-0.30
2018-02-10T03:58:33.568Z,-0.30
2018-02-10T04:01:03.397Z,-0.30
2018-02-10T04:03:34.096Z,-0.30
2018-02-10T04:06:03.979Z,-0.30
2018-02-10T04:08:33.846Z,-0.30
2018-02-10T04:11:03.810Z,-0.30
2018-02-10T04:13:33.826Z,-0.30
2018-02-10T04:16:03.764Z,-0.30
2018-02-10T04:18:33.619Z,-0.20
2018-02-10T04:21:04.490Z,-0.20
2018-02-10T04:23:34.339Z,-0.20
2018-02-10T04:26:04.321Z,-0.30
2018-02-10T04:28:34.238Z,-0.20
2018-02-10T04:31:04.257Z,-0.20
2018-02-10T04:33:34.170Z,-0.20
2018-02-10T04:36:04.292Z,0.20
2018-02-10T04:38:34.248Z,0.20
2018-02-10T04:41:04.140Z,0.10
2018-02-10T04:43:34.137Z,0.10
2018-02-10T04:46:04.029Z,0.10
2018-02-10T04:48:34.726Z,0.10
2018-02-10T04:51:04.704Z,0.10
2018-02-10T04:53:34.631Z,0.10
2018-02-10T04:56:04.635Z,0.00
2018-02-10T04:58:34.652Z,-0.10
2018-02-10T05:01:04.599Z,-0.10
2018-02-10T05:03:34.688Z,-0.20
2018-02-10T05:06:04.555Z,-0.20
2018-02-10T05:08:34.482Z,-0.20
2018-02-10T05:11:05.254Z,-0.20
2018-02-10T05:13:35.095Z,-0.20
2018-02-10T05:16:05.085Z,-0.20
2018-02-10T05:18:35.041Z,-0.20
2018-02-10T05:21:04.958Z,-0.20
2018-02-10T05:23:35.044Z,-0.20
2018-02-10T05:26:04.681Z,-0.20
2018-02-10T05:28:35.548Z,-0.20
2018-02-10T05:31:06.187Z,-0.30
2018-02-10T05:33:36.194Z,-0.30
2018-02-10T05:36:10.803Z,-0.30
2018-02-10T05:38:41.597Z,-0.20
2018-02-10T05:41:11.541Z,-0.30
2018-02-10T05:43:42.342Z,-0.30
2018-02-10T05:46:12.291Z,-0.30
2018-02-10T05:48:42.289Z,-0.30
2018-02-10T05:51:12.243Z,-0.30
2018-02-10T05:53:43.026Z,-0.30
2018-02-10T05:56:13.152Z,-0.30
2018-02-10T05:58:44.138Z,-0.30
2018-02-10T06:01:14.038Z,-0.30
2018-02-10T06:03:43.923Z,-0.20
2018-02-10T06:06:13.728Z,-0.20
2018-02-10T06:08:43.672Z,-0.20
2018-02-10T06:11:13.572Z,-0.20
2018-02-10T06:13:43.460Z,-0.10
2018-02-10T06:16:13.417Z,-0.10
2018-02-10T06:18:43.412Z,-0.10
2018-02-10T06:21:13.123Z,-0.10
2018-02-10T06:23:43.002Z,-0.10
2018-02-10T06:26:13.272Z,-0.20
2018-02-10T06:28:43.163Z,-0.20
2018-02-10T06:31:13.189Z,-0.20
2018-02-10T06:33:43.084Z,-0.20
2018-02-10T06:36:13.123Z,-0.20
2018-02-10T06:38:43.144Z,-0.10
2018-02-10T06:41:13.712Z,-0.10
2018-02-10T06:43:43.566Z,-0.20
2018-02-10T06:46:13.603Z,-0.20
2018-02-10T06:48:43.476Z,-0.10
2018-02-10T06:51:14.098Z,-0.10
2018-02-10T06:53:44.092Z,-0.10
2018-02-10T06:56:13.921Z,-0.10
2018-02-10T06:58:43.816Z,-0.10
2018-02-10T07:01:13.706Z,-0.10
2018-02-10T07:03:43.588Z,-0.10
2018-02-10T07:06:14.355Z,-0.20
2018-02-10T07:08:44.195Z,-0.20
2018-02-10T07:11:14.061Z,-0.20
2018-02-10T07:13:44.818Z,-0.20
2018-02-10T07:16:14.835Z,-0.20
2018-02-10T07:18:44.749Z,-0.20
2018-02-10T07:21:14.614Z,-0.20
2018-02-10T07:23:44.580Z,-0.20
2018-02-10T07:26:14.599Z,-0.10
2018-02-10T07:28:44.440Z,-0.10
2018-02-10T07:31:14.317Z,-0.10
2018-02-10T07:33:44.347Z,-0.10
2018-02-10T07:36:14.215Z,-0.10
2018-02-10T07:38:44.086Z,-0.10
2018-02-10T07:41:16.002Z,0.00
2018-02-10T07:43:45.884Z,0.10
2018-02-10T07:46:15.812Z,0.10
2018-02-10T07:48:45.662Z,0.10
2018-02-10T07:51:15.586Z,0.20
2018-02-10T07:53:45.431Z,0.10
2018-02-10T07:56:16.101Z,0.20
2018-02-10T07:58:46.717Z,0.20
2018-02-10T08:01:16.610Z,0.20
2018-02-10T08:03:46.651Z,0.30
2018-02-10T08:06:17.411Z,0.40
2018-02-10T08:08:48.557Z,0.40
2018-02-10T08:11:19.196Z,0.40
2018-02-10T08:13:49.909Z,0.30
2018-02-10T08:16:19.783Z,0.40
2018-02-10T08:18:49.655Z,0.30
2018-02-10T08:21:20.301Z,0.40
2018-02-10T08:23:50.147Z,0.40
2018-02-10T08:26:20.026Z,0.40
2018-02-10T08:28:50.657Z,0.30
2018-02-10T08:31:20.519Z,0.30
2018-02-10T08:33:50.375Z,0.40
2018-02-10T08:36:21.068Z,0.50
2018-02-10T08:38:50.959Z,0.50
2018-02-10T08:41:20.809Z,0.70
2018-02-10T08:43:50.810Z,0.80
2018-02-10T08:46:20.675Z,0.80
2018-02-10T08:48:50.572Z,0.70
2018-02-10T08:51:20.449Z,0.80
2018-02-10T08:53:50.307Z,0.80
2018-02-10T08:56:21.471Z,0.80
2018-02-10T08:58:51.319Z,0.80
2018-02-10T09:01:21.243Z,0.70
2018-02-10T09:03:51.089Z,0.70
2018-02-10T09:06:20.964Z,0.70
2018-02-10T09:08:50.959Z,0.60
2018-02-10T09:11:20.828Z,0.60
2018-02-10T09:13:50.894Z,0.70
2018-02-10T09:16:21.672Z,0.70
2018-02-10T09:18:51.544Z,0.70
2018-02-10T09:21:21.458Z,0.70
2018-02-10T09:23:51.375Z,0.70
2018-02-10T09:26:21.230Z,0.70
2018-02-10T09:28:51.202Z,0.80
2018-02-10T09:31:21.099Z,0.80
2018-02-10T09:33:50.982Z,0.80
2018-02-10T09:36:20.847Z,0.90
2018-02-10T09:38:50.759Z,0.90
2018-02-10T09:41:20.640Z,0.90
2018-02-10T09:43:51.292Z,0.80
2018-02-10T09:46:21.172Z,0.80
2018-02-10T09:48:51.044Z,0.90
2018-02-10T09:51:20.931Z,1.00
2018-02-10T09:53:50.992Z,0.90
2018-02-10T09:56:20.870Z,1.00
2018-02-10T09:58:50.776Z,1.00
2018-02-10T10:01:20.688Z,1.00
2018-02-10T10:03:51.391Z,1.20
2018-02-10T10:06:21.257Z,1.10
2018-02-10T10:08:51.150Z,1.20
2018-02-10T10:11:21.032Z,1.30
2018-02-10T10:13:50.921Z,1.30
2018-02-10T10:16:20.793Z,1.30
2018-02-10T10:18:51.567Z,1.40
2018-02-10T10:21:21.516Z,1.40
2018-02-10T10:23:51.103Z,1.40
2018-02-10T10:26:20.986Z,1.50
2018-02-10T10:28:50.844Z,1.50
2018-02-10T10:31:21.713Z,1.50
2018-02-10T10:33:52.372Z,1.60
2018-02-10T10:36:22.252Z,1.60
2018-02-10T10:38:52.901Z,1.70
2018-02-10T10:41:22.556Z,1.70
2018-02-10T10:43:53.239Z,1.90
2018-02-10T10:46:23.932Z,1.90
2018-02-10T10:48:53.772Z,1.90
2018-02-10T10:51:24.420Z,2.10
2018-02-10T10:53:55.047Z,2.20
2018-02-10T10:56:25.815Z,2.20
2018-02-10T10:58:55.680Z,2.20
2018-02-10T11:01:25.539Z,2.30
2018-02-10T11:03:55.404Z,2.30
2018-02-10T11:06:25.309Z,2.30
2018-02-10T11:08:55.175Z,2.30
2018-02-10T11:11:25.049Z,2.30
2018-02-10T11:13:54.938Z,2.30
2018-02-10T11:16:24.811Z,2.30
2018-02-10T11:18:54.719Z,2.30
2018-02-10T11:21:24.687Z,2.30
2018-02-10T11:23:54.521Z,2.30
2018-02-10T11:26:24.374Z,2.30
2018-02-10T11:28:55.158Z,2.30
2018-02-10T11:31:25.076Z,2.30
2018-02-10T11:33:55.688Z,2.20
2018-02-10T11:36:25.362Z,2.30
2018-02-10T11:38:55.240Z,2.30
2018-02-10T11:41:25.595Z,2.50
2018-02-10T11:43:56.324Z,3.10
2018-02-10T11:46:30.556Z,3.10
2018-02-10T11:49:00.445Z,3.10
2018-02-10T11:51:31.107Z,3.40
2018-02-10T11:54:00.928Z,3.40
2018-02-10T11:56:30.827Z,3.50
2018-02-10T11:59:00.768Z,3.40
2018-02-10T12:01:30.668Z,3.40
2018-02-10T12:04:00.535Z,3.40
2018-02-10T12:06:30.400Z,3.30
2018-02-10T12:09:00.375Z,3.40
2018-02-10T12:11:30.290Z,3.50
2018-02-10T12:14:00.130Z,3.60
2018-02-10T12:16:29.982Z,3.50
2018-02-10T12:18:59.877Z,3.50
2018-02-10T12:21:29.779Z,3.60
2018-02-10T12:23:59.635Z,3.60
2018-02-10T12:26:31.039Z,3.90
2018-02-10T12:29:00.907Z,3.90
2018-02-10T12:31:30.797Z,4.20
2018-02-10T12:34:00.654Z,4.50
2018-02-10T12:36:30.536Z,4.30
2018-02-10T12:39:00.374Z,3.90
2018-02-10T12:41:31.809Z,3.80
2018-02-10T12:44:01.661Z,3.70
2018-02-10T12:46:32.301Z,3.80
2018-02-10T12:51:59.883Z,3.70
2018-02-10T12:54:29.792Z,3.90
2018-02-10T12:56:59.663Z,3.90
2018-02-10T12:59:30.327Z,4.60
2018-02-10T13:02:00.147Z,4.60
2018-02-10T13:04:30.023Z,4.90
2018-02-10T13:07:00.662Z,6.00
2018-02-10T13:09:31.271Z,6.50
2018-02-10T13:12:01.147Z,6.50
2018-02-10T13:14:30.988Z,6.70
2018-02-10T13:17:01.778Z,6.50
2018-02-10T13:19:31.612Z,6.50
2018-02-10T13:22:01.562Z,7.00
2018-02-10T13:24:31.526Z,7.10
2018-02-10T13:27:01.478Z,6.70
2018-02-10T13:29:31.106Z,6.10
2018-02-10T13:32:00.984Z,5.20
2018-02-10T13:34:30.810Z,4.60
2018-02-10T13:37:00.716Z,4.50
2018-02-10T13:39:30.575Z,4.70
2018-02-10T13:42:01.245Z,5.10
2018-02-10T13:44:31.125Z,5.10
2018-02-10T13:47:01.764Z,4.70
2018-02-10T13:49:32.416Z,4.30
2018-02-10T13:52:02.249Z,4.30
2018-02-10T13:54:32.119Z,4.10
2018-02-10T13:57:02.723Z,3.90
2018-02-10T13:59:32.621Z,3.90
2018-02-10T14:02:03.531Z,3.50
2018-02-10T14:04:33.370Z,3.50
2018-02-10T14:07:03.247Z,3.40
2018-02-10T14:09:32.896Z,3.40
2018-02-10T14:12:02.819Z,3.60
2018-02-10T14:14:32.652Z,3.60
2018-02-10T14:17:02.346Z,3.50
2018-02-10T14:19:32.203Z,3.40
2018-02-10T14:22:02.039Z,3.30
2018-02-10T14:24:31.918Z,3.30
2018-02-10T14:27:02.533Z,3.30
2018-02-10T14:29:32.399Z,3.30
2018-02-10T14:32:02.244Z,3.20
2018-02-10T14:34:32.140Z,3.20
2018-02-10T14:37:01.988Z,3.20
2018-02-10T14:39:31.600Z,3.10
2018-02-10T14:42:02.290Z,3.10
2018-02-10T14:44:32.100Z,3.10
2018-02-10T14:47:01.962Z,3.00
2018-02-10T14:49:32.792Z,3.00
2018-02-10T14:52:02.648Z,3.00
2018-02-10T14:54:32.527Z,3.00
2018-02-10T14:57:02.561Z,3.00
2018-02-10T14:59:33.213Z,3.00
2018-02-10T15:02:03.068Z,3.00
2018-02-10T15:04:32.991Z,3.00
2018-02-10T15:07:02.831Z,3.00
2018-02-10T15:09:32.732Z,3.00
2018-02-10T15:12:03.387Z,3.10
2018-02-10T15:14:33.250Z,3.10
2018-02-10T15:17:03.157Z,3.00
2018-02-10T15:19:33.042Z,2.90
2018-02-10T15:22:02.964Z,2.80
2018-02-10T15:24:32.860Z,2.90
2018-02-10T15:27:03.265Z,2.80
2018-02-10T15:29:44.295Z,2.80
2018-02-10T15:32:25.176Z,2.80
2018-02-10T15:35:00.349Z,2.80
2018-02-10T15:37:30.407Z,2.70
2018-02-10T15:40:01.247Z,2.70
2018-02-10T15:42:31.110Z,2.70
2018-02-10T15:45:00.974Z,2.70
2018-02-10T15:47:31.737Z,2.60
2018-02-10T15:50:01.771Z,2.60
2018-02-10T15:52:31.647Z,2.60
2018-02-10T15:55:01.560Z,2.60
2018-02-10T15:57:31.577Z,2.70
2018-02-10T16:00:01.440Z,2.70
2018-02-10T16:02:31.308Z,2.60
2018-02-10T16:05:01.220Z,2.60
2018-02-10T16:07:31.061Z,2.50
2018-02-10T16:10:00.950Z,2.50
2018-02-10T16:12:30.812Z,2.50
2018-02-10T16:15:00.697Z,2.60
2018-02-10T16:17:30.527Z,2.60
2018-02-10T16:20:00.441Z,2.50
2018-02-10T16:22:30.281Z,2.40
2018-02-10T16:25:00.982Z,2.40
2018-02-10T16:27:30.895Z,2.40
2018-02-10T16:30:00.755Z,2.40
2018-02-10T16:32:31.380Z,2.50
2018-02-10T16:35:02.073Z,2.50
2018-02-10T16:37:31.947Z,2.50
2018-02-10T16:40:01.892Z,2.60
2018-02-10T16:42:31.746Z,2.60
2018-02-10T16:45:01.625Z,2.60
2018-02-10T16:47:32.546Z,2.60
2018-02-10T16:50:02.391Z,2.50
2018-02-10T16:52:33.024Z,2.50
2018-02-10T16:55:03.368Z,2.50
2018-02-10T16:57:33.277Z,2.50
2018-02-10T17:00:02.827Z,2.50
2018-02-10T17:02:32.671Z,2.50
2018-02-10T17:05:02.697Z,2.50
2018-02-10T17:07:32.508Z,2.50
2018-02-10T17:10:02.498Z,2.50
2018-02-10T17:12:32.340Z,2.60
2018-02-10T17:15:02.440Z,2.40
2018-02-10T17:17:32.588Z,2.50
2018-02-10T17:20:02.569Z,2.40
2018-02-10T17:22:32.228Z,2.30
2018-02-10T17:25:02.046Z,2.30
2018-02-10T17:27:31.918Z,2.30
2018-02-10T17:30:01.728Z,2.30
2018-02-10T17:32:31.592Z,2.30
2018-02-10T17:35:01.240Z,2.30
2018-02-10T17:37:31.125Z,2.30
2018-02-10T17:40:01.721Z,2.20
2018-02-10T17:42:31.748Z,2.20
2018-02-10T17:45:01.596Z,2.20
2018-02-10T17:47:32.728Z,2.20
2018-02-10T17:50:03.440Z,2.20
2018-02-10T17:52:33.304Z,2.20
2018-02-10T17:55:03.138Z,2.20
2018-02-10T17:57:32.995Z,2.20
2018-02-10T18:00:02.829Z,2.10
2018-02-10T18:02:33.469Z,2.10
2018-02-10T18:05:03.908Z,2.10
2018-02-10T18:07:34.030Z,2.10
2018-02-10T18:10:03.873Z,2.10
2018-02-10T18:12:33.691Z,2.00
2018-02-10T18:15:03.617Z,2.00
2018-02-10T18:17:33.525Z,2.00
2018-02-10T18:20:03.392Z,2.00
2018-02-10T18:22:34.045Z,2.00
2018-02-10T18:25:03.914Z,2.00
2018-02-10T18:27:33.802Z,1.90
2018-02-10T18:30:03.487Z,1.90
2018-02-10T18:32:33.401Z,1.90
2018-02-10T18:35:03.221Z,1.90
2018-02-10T18:37:32.912Z,1.90
2018-02-10T18:40:03.442Z,1.90
2018-02-10T18:42:33.296Z,1.80
2018-02-10T18:45:03.419Z,1.80
2018-02-10T18:47:33.305Z,1.80
2018-02-10T18:50:03.143Z,1.90
2018-02-10T18:52:33.950Z,1.90
2018-02-10T18:55:03.825Z,1.90
2018-02-10T18:57:34.452Z,1.90
2018-02-10T19:00:03.679Z,1.90
2018-02-10T19:02:34.283Z,1.80
2018-02-10T19:05:04.309Z,1.80
2018-02-10T19:07:34.929Z,1.80
2018-02-10T19:10:04.644Z,1.80
2018-02-10T19:12:35.246Z,1.70
2018-02-10T19:15:04.915Z,1.70
2018-02-10T19:17:34.763Z,1.80
2018-02-10T19:20:04.300Z,1.80
2018-02-10T19:22:34.133Z,1.80
2018-02-10T19:25:04.747Z,1.80
2018-02-10T19:27:34.599Z,1.80
2018-02-10T19:30:04.472Z,1.80
2018-02-10T19:32:34.328Z,1.80
2018-02-10T19:35:04.200Z,1.80
2018-02-10T19:37:34.143Z,1.80
2018-02-10T19:40:04.793Z,1.80
2018-02-10T19:42:34.607Z,1.80
2018-02-10T19:45:04.475Z,1.80
2018-02-10T19:47:34.347Z,1.70
2018-02-10T19:50:04.193Z,1.70
2018-02-10T19:52:34.045Z,1.80
2018-02-10T19:55:04.798Z,1.80
2018-02-10T19:57:34.616Z,1.80
2018-02-10T20:00:04.138Z,1.80
2018-02-10T20:02:35.204Z,1.80
2018-02-10T20:05:04.927Z,1.70
2018-02-10T20:07:34.780Z,1.60
2018-02-10T20:10:04.360Z,1.70
2018-02-10T20:12:34.208Z,1.70
2018-02-10T20:15:03.771Z,1.70
2018-02-10T20:17:33.628Z,1.70
2018-02-10T20:20:04.463Z,1.70
2018-02-10T20:22:35.073Z,1.70
2018-02-10T20:25:05.640Z,1.70
2018-02-10T20:27:35.534Z,1.70
2018-02-10T20:30:06.176Z,1.70
2018-02-10T20:32:36.960Z,1.70
2018-02-10T20:35:06.809Z,1.70
2018-02-10T20:37:38.394Z,1.70
2018-02-10T20:40:08.287Z,1.70
2018-02-10T20:42:38.135Z,1.60
2018-02-10T20:45:07.997Z,1.60
2018-02-10T20:47:37.851Z,1.70
2018-02-10T20:50:07.728Z,1.70
2018-02-10T20:52:37.992Z,1.70
2018-02-10T20:55:07.539Z,1.80
2018-02-10T20:57:37.516Z,1.80
2018-02-10T21:00:07.389Z,1.70
2018-02-10T21:02:37.260Z,1.70
2018-02-10T21:05:07.155Z,1.80
2018-02-10T21:07:37.143Z,1.80
2018-02-10T21:10:07.007Z,1.80
2018-02-10T21:12:36.884Z,1.80
2018-02-10T21:15:07.503Z,1.80
2018-02-10T21:17:38.136Z,1.90
2018-02-10T21:20:07.338Z,1.90
2018-02-10T21:22:37.263Z,1.90
2018-02-10T21:25:07.845Z,1.90
2018-02-10T21:27:37.403Z,1.90
2018-02-10T21:30:07.257Z,2.00
2018-02-10T21:32:37.232Z,2.00
2018-02-10T21:35:07.053Z,2.00
2018-02-10T21:37:36.907Z,1.90
2018-02-10T21:40:07.543Z,2.00
2018-02-10T21:42:38.213Z,2.00
2018-02-10T21:45:08.020Z,2.00
2018-02-10T21:47:37.927Z,1.90
2018-02-10T21:50:08.244Z,1.90
2018-02-10T21:52:38.165Z,1.90
2018-02-10T21:55:08.059Z,2.00
2018-02-10T21:57:37.985Z,1.90
2018-02-10T22:00:07.832Z,1.90
2018-02-10T22:02:38.409Z,1.90
2018-02-10T22:05:08.255Z,1.90
2018-02-10T22:07:38.637Z,1.90
2018-02-10T22:10:08.448Z,1.90
2018-02-10T22:12:38.663Z,1.80
2018-02-10T22:15:08.232Z,1.80
2018-02-10T22:17:38.868Z,1.80
2018-02-10T22:20:09.734Z,1.80
2018-02-10T22:22:39.563Z,1.80
2018-02-10T22:25:09.619Z,1.90
2018-02-10T22:27:40.338Z,1.90
2018-02-10T22:30:10.164Z,1.90
2018-02-10T22:32:40.062Z,1.90
2018-02-10T22:35:09.953Z,1.90
2018-02-10T22:37:39.621Z,1.90
2018-02-10T22:40:10.200Z,1.80
2018-02-10T22:42:40.084Z,1.80
2018-02-10T22:45:10.139Z,1.80
2018-02-10T22:47:39.955Z,1.70
2018-02-10T22:50:09.875Z,1.70
2018-02-10T22:52:39.759Z,1.70
2018-02-10T22:55:09.666Z,1.60
2018-02-10T22:57:39.563Z,1.60
2018-02-10T23:00:10.344Z,1.50
2018-02-10T23:02:39.955Z,1.50
2018-02-10T23:05:09.841Z,1.50
2018-02-10T23:07:39.795Z,1.40
2018-02-10T23:10:09.737Z,1.50
2018-02-10T23:12:40.377Z,1.50
2018-02-10T23:15:11.847Z,1.50
2018-02-10T23:17:41.719Z,1.50
2018-02-10T23:20:11.581Z,1.50
2018-02-10T23:22:41.475Z,1.50
2018-02-10T23:25:11.383Z,1.60
2018-02-10T23:27:41.239Z,1.60
2018-02-10T23:30:11.100Z,1.70
2018-02-10T23:32:40.987Z,1.60
2018-02-10T23:35:10.837Z,1.70
2018-02-10T23:37:40.403Z,1.70
2018-02-10T23:40:10.276Z,1.70
2018-02-10T23:42:40.862Z,1.80
2018-02-10T23:45:10.740Z,1.70
2018-02-10T23:47:40.615Z,1.80
2018-02-10T23:50:10.167Z,1.80
2018-02-10T23:52:39.885Z,1.80
2018-02-10T23:55:09.729Z,1.80
2018-02-10T23:57:39.565Z,1.80
